Attività con fini culturali e ricreativi - Codice Fiscale 91122750689  

I bollettini meteorologici codificati usati in aviazione sono chiamati METAR. Contengono in ordine: la località, l'orario dell'osservazione, il vento, la visibilità, la copertura nuvolosa con eventuali fenomeni significativi, la temperatura, il punto di rugiada e la pressione atmosferica.    Scopri come leggerli...
Si riportano di seguito le ultime 90 osservazioni meteorologiche effettuate dall'aeroporto di Pescara.

LIBP 221950Z 22002KT CAVOK 07/06 Q1021
LIBP 221850Z 23003KT CAVOK 09/07 Q1021
LIBP 221750Z 23004KT CAVOK 09/08 Q1021
LIBP 221650Z VRB01KT CAVOK 11/09 Q1020
LIBP 221550Z 03005KT CAVOK 12/09 Q1020
LIBP 221450Z 04005KT CAVOK 14/09 Q1020
LIBP 221350Z 04007KT CAVOK 16/07 Q1020
LIBP 221250Z 05007KT CAVOK 16/07 Q1020
LIBP 221150Z 05008KT CAVOK 15/07 Q1020
LIBP 221050Z 04005KT 010V070 CAVOK 16/06 Q1021
LIBP 220950Z VRB02KT CAVOK 14/05 Q1021
LIBP 220850Z 16003KT 120V190 CAVOK 11/05 Q1021
LIBP 220750Z 23003KT CAVOK 07/04 Q1021
LIBP 220650Z 23002KT CAVOK 04/02 Q1021
LIBP 220550Z AUTO 23004KT 9999 NCD 03/02 Q1020
LIBP 220450Z AUTO 19003KT 9999 NCD 03/02 Q1020
LIBP 220350Z AUTO 23003KT 9999 NCD 03/02 Q1020
LIBP 220250Z AUTO 20004KT 9999 NCD 03/02 Q1020
LIBP 220150Z AUTO 21004KT 9999 NCD 03/02 Q1021
LIBP 220050Z 24004KT 210V280 CAVOK 04/02 Q1021
LIBP 212350Z 19005KT CAVOK 04/03 Q1021
LIBP 212250Z 21005KT CAVOK 04/02 Q1021
LIBP 212150Z 21005KT CAVOK 04/03 Q1020
LIBP 212050Z 21004KT CAVOK 06/03 Q1020
LIBP 211950Z 21002KT CAVOK 06/03 Q1020
LIBP 211850Z 22004KT CAVOK 07/03 Q1020
LIBP 211750Z VRB01KT CAVOK 08/03 Q1020
LIBP 211650Z VRB02KT CAVOK 09/02 Q1020
LIBP 211550Z VRB01KT CAVOK 13/M00 Q1019
LIBP 211450Z VRB02KT CAVOK 15/01 Q1019
LIBP 211350Z 06006KT CAVOK 15/03 Q1019
LIBP 211250Z 06007KT CAVOK 14/04 Q1020
LIBP 211150Z VRB01KT CAVOK 17/01 Q1020
LIBP 211050Z VRB01KT CAVOK 16/01 Q1020
LIBP 210950Z VRB02KT CAVOK 13/03 Q1021
LIBP 210850Z VRB02KT CAVOK 09/03 Q1021
LIBP 210750Z 20003KT CAVOK 04/02 Q1020
LIBP 210650Z 29002KT CAVOK 03/02 Q1020
LIBP 210550Z AUTO 22003KT 9999 BKN210/// 03/01 Q1019
LIBP 210450Z AUTO 21003KT 9999 BKN230/// 02/01 Q1019
LIBP 210350Z AUTO 25002KT 9999 BKN240/// 03/01 Q1019
LIBP 210250Z AUTO VRB02KT 9999 BKN220/// 02/01 Q1019
LIBP 210150Z AUTO 23003KT 9999 SCT220/// 02/01 Q1020
LIBP 210050Z AUTO 21003KT 9999 NCD 02/01 Q1020
LIBP 202350Z AUTO 21005KT 9999 NCD 02/01 Q1020
LIBP 202250Z AUTO 22005KT 9999 NCD 03/01 Q1020
LIBP 202150Z 21004KT CAVOK 03/01 Q1020
LIBP 202050Z 21005KT CAVOK 03/01 Q1020
LIBP 201950Z 24003KT CAVOK 06/03 Q1021
LIBP 201850Z 24005KT CAVOK 06/03 Q1021
LIBP 201750Z VRB01KT CAVOK 09/03 Q1021
LIBP 201650Z VRB02KT CAVOK 11/03 Q1020
LIBP 201550Z VRB02KT CAVOK 12/02 Q1020
LIBP 201450Z 09006KT CAVOK 14/02 Q1020
LIBP 201350Z 08007KT CAVOK 14/01 Q1020
LIBP 201250Z 07005KT CAVOK 15/01 Q1021
LIBP 201150Z VRB02KT CAVOK 15/01 Q1021
LIBP 201050Z VRB02KT CAVOK 15/01 Q1021
LIBP 200950Z 24004KT 200V270 CAVOK 13/03 Q1021
LIBP 200850Z 24004KT CAVOK 11/04 Q1021
LIBP 200750Z 23006KT CAVOK 08/05 Q1021
LIBP 200650Z 22005KT CAVOK 05/03 Q1021
LIBP 200550Z AUTO 21008KT 9999 NCD 05/04 Q1020
LIBP 200450Z AUTO 20004KT 9999 NCD 06/03 Q1020
LIBP 200350Z AUTO 30005KT 270V340 9999 NCD 11/05 Q1019
LIBP 200250Z AUTO 31005KT 260V340 9999 NCD 11/05 Q1018
LIBP 200150Z AUTO 32007KT 290V350 9999 NCD 11/05 Q1017
LIBP 200050Z AUTO 31008KT 280V340 9999 NCD 11/06 Q1017
LIBP 192350Z AUTO 21005KT 9999 FEW060/// 06/04 Q1016
LIBP 192250Z AUTO 22005KT 9000 BKN061/// 07/05 Q1016
LIBP 192150Z 21007KT 9999 SCT080 06/04 Q1015
LIBP 192050Z 20003KT 9999 BKN070 06/04 Q1014
LIBP 191950Z 20004KT CAVOK 06/04 Q1014
LIBP 191850Z 19007KT CAVOK 08/06 Q1013
LIBP 191750Z 23004KT CAVOK 08/06 Q1012
LIBP 191650Z 24002KT CAVOK 09/06 Q1012
LIBP 191550Z VRB01KT CAVOK 12/05 Q1011
LIBP 191450Z 04005KT CAVOK 14/06 Q1011
LIBP 191350Z 04006KT CAVOK 15/05 Q1011
LIBP 191250Z 07004KT 030V110 CAVOK 15/06 Q1012
LIBP 191150Z VRB03KT CAVOK 15/05 Q1012
LIBP 191050Z VRB01KT CAVOK 14/06 Q1013
LIBP 190950Z 24004KT 210V270 CAVOK 12/07 Q1013
LIBP 190850Z 22005KT CAVOK 10/06 Q1014
LIBP 190750Z 22004KT CAVOK 07/05 Q1014
LIBP 190650Z 20005KT CAVOK 05/04 Q1014
LIBP 190550Z AUTO 22005KT 9999 BKN190/// 05/04 Q1014
LIBP 190450Z AUTO 23002KT 9999 BKN230/// 05/04 Q1014
LIBP 190350Z AUTO 21004KT 9999 NCD 05/04 Q1015
LIBP 190250Z AUTO 23005KT 9999 SCT050/// 07/05 Q1015

Fonte: National Oceanic and Atmospheric Administration (NOAA)

Ultimi caricamenti...


I-LAQU Babcock MCS Leonardo Helicopters AW139

 


VFOD VF-52 Vigili del Fuoco AgustaBell AB-412

 


VFOD VF-52 Vigili del Fuoco AgustaBell AB-412

Questo sito non utilizza cookie di profilazione. Il sito utilizza cookie tecnici, di analisi anonima di prima parte e di terze parti per servizi di social network.